createdAt,value
2022-09-28T00:01:27.474Z,42.40
2022-09-28T00:03:29.174Z,42.10
2022-09-28T00:05:32.725Z,42.20
2022-09-28T00:07:34.717Z,42.20
2022-09-28T00:09:36.378Z,42.20
2022-09-28T00:11:38.337Z,42.20
2022-09-28T00:13:41.066Z,42.20
2022-09-28T00:15:42.718Z,42.20
2022-09-28T00:17:47.289Z,42.20
2022-09-28T00:19:49.615Z,42.20
2022-09-28T00:21:51.243Z,42.10
2022-09-28T00:24:16.757Z,42.00
2022-09-28T00:26:18.381Z,42.00
2022-09-28T00:28:22.291Z,41.90
2022-09-28T00:30:23.974Z,41.80
2022-09-28T00:32:26.535Z,41.80
2022-09-28T00:34:33.696Z,41.70
2022-09-28T00:36:35.646Z,41.60
2022-09-28T00:38:40.540Z,41.40
2022-09-28T00:40:42.227Z,41.30
2022-09-28T00:42:44.969Z,41.20
2022-09-28T00:44:51.869Z,41.10
2022-09-28T00:47:23.718Z,41.20
2022-09-28T00:49:36.762Z,40.80
2022-09-28T00:51:41.057Z,40.60
2022-09-28T00:53:44.477Z,40.40
2022-09-28T00:56:07.415Z,40.20
2022-09-28T00:58:12.478Z,40.00
2022-09-28T01:00:14.864Z,39.60
2022-09-28T01:02:18.678Z,39.70
2022-09-28T01:04:24.194Z,39.70
2022-09-28T01:06:33.091Z,39.60
2022-09-28T01:08:37.125Z,39.60
2022-09-28T01:10:43.397Z,39.60
2022-09-28T01:12:45.069Z,39.40
2022-09-28T01:14:47.965Z,39.00
2022-09-28T01:17:04.068Z,39.00
2022-09-28T01:19:37.606Z,38.70
2022-09-28T01:22:08.140Z,38.60
2022-09-28T01:24:18.543Z,38.40
2022-09-28T01:26:38.820Z,38.30
2022-09-28T01:28:53.991Z,38.20
2022-09-28T01:31:12.698Z,38.10
2022-09-28T01:33:22.213Z,38.10
2022-09-28T01:35:35.632Z,38.00
2022-09-28T01:37:52.166Z,38.20
2022-09-28T01:39:56.861Z,38.10
2022-09-28T01:42:03.081Z,38.10
2022-09-28T01:44:08.663Z,38.20
2022-09-28T01:46:20.126Z,38.10
2022-09-28T01:48:41.578Z,38.10
2022-09-28T01:50:47.412Z,38.30
2022-09-28T01:53:03.417Z,38.20
2022-09-28T01:55:08.209Z,38.30
2022-09-28T01:57:19.656Z,38.30
2022-09-28T01:59:29.442Z,38.30
2022-09-28T02:01:58.882Z,38.20
2022-09-28T02:04:12.139Z,38.40
2022-09-28T02:06:20.014Z,38.30
2022-09-28T02:08:31.580Z,38.30
2022-09-28T02:10:49.962Z,38.30
2022-09-28T02:12:58.039Z,38.30
2022-09-28T02:15:14.450Z,38.20
2022-09-28T02:17:16.622Z,38.40
2022-09-28T02:19:25.858Z,38.30
2022-09-28T02:21:59.560Z,38.40
2022-09-28T02:24:21.583Z,38.40
2022-09-28T02:26:30.512Z,38.20
2022-09-28T02:28:32.391Z,38.10
2022-09-28T02:30:36.954Z,38.10
2022-09-28T02:32:44.309Z,38.20
2022-09-28T02:34:48.377Z,38.20
2022-09-28T02:36:52.421Z,38.30
2022-09-28T02:38:55.054Z,38.50
2022-09-28T02:41:05.460Z,38.80
2022-09-28T02:43:52.905Z,38.80
2022-09-28T02:46:22.288Z,39.00
2022-09-28T02:49:00.431Z,39.00
2022-09-28T02:51:23.821Z,38.80
2022-09-28T02:53:40.390Z,38.70
2022-09-28T02:56:09.570Z,38.80
2022-09-28T02:58:43.191Z,39.00
2022-09-28T03:00:54.757Z,38.80
2022-09-28T03:03:14.209Z,38.60
2022-09-28T03:05:22.953Z,38.60
2022-09-28T03:07:34.814Z,38.70
2022-09-28T03:09:44.308Z,38.70
2022-09-28T03:11:50.216Z,38.60
2022-09-28T03:13:53.089Z,38.60
2022-09-28T03:16:17.958Z,38.50
2022-09-28T03:18:22.165Z,38.60
2022-09-28T03:20:24.733Z,38.40
2022-09-28T03:22:26.401Z,38.70
2022-09-28T03:24:28.765Z,38.50
2022-09-28T03:26:32.460Z,38.50
2022-09-28T03:28:36.170Z,38.40
2022-09-28T03:30:38.543Z,38.40
2022-09-28T03:32:41.965Z,38.30
2022-09-28T03:34:44.393Z,38.20
2022-09-28T03:36:48.602Z,38.10
2022-09-28T03:38:57.482Z,38.10
2022-09-28T03:41:00.602Z,38.10
2022-09-28T03:43:07.556Z,38.10
2022-09-28T03:45:10.013Z,38.10
2022-09-28T03:47:11.907Z,38.10
2022-09-28T03:49:16.401Z,38.00
2022-09-28T03:51:18.102Z,38.00
2022-09-28T03:53:22.541Z,38.00
2022-09-28T03:55:24.273Z,37.90
2022-09-28T03:57:28.217Z,37.80
2022-09-28T03:59:33.573Z,37.70
2022-09-28T04:01:38.588Z,37.80
2022-09-28T04:03:40.370Z,37.70
2022-09-28T04:05:52.645Z,37.70
2022-09-28T04:07:57.728Z,37.70
2022-09-28T04:09:59.393Z,37.50
2022-09-28T04:12:04.596Z,37.60
2022-09-28T04:14:07.826Z,37.30
2022-09-28T04:16:11.451Z,37.40
2022-09-28T04:18:15.255Z,37.30
2022-09-28T04:21:03.593Z,37.50
2022-09-28T04:23:07.856Z,37.30
2022-09-28T04:25:09.709Z,37.50
2022-09-28T04:27:30.580Z,37.40
2022-09-28T04:29:32.381Z,37.50
2022-09-28T04:31:44.068Z,37.50
2022-09-28T04:33:45.932Z,37.50
2022-09-28T04:35:47.659Z,37.40
2022-09-28T04:37:49.315Z,37.30
2022-09-28T04:39:52.527Z,37.40
2022-09-28T04:41:56.698Z,37.30
2022-09-28T04:43:58.533Z,37.50
2022-09-28T04:46:07.475Z,37.40
2022-09-28T04:48:17.568Z,37.60
2022-09-28T04:50:37.642Z,37.40
2022-09-28T04:52:50.913Z,37.40
2022-09-28T04:54:52.597Z,37.20
2022-09-28T04:56:55.301Z,37.20
2022-09-28T04:58:57.076Z,37.00
2022-09-28T05:01:01.305Z,37.00
2022-09-28T05:03:26.960Z,37.00
2022-09-28T05:05:59.149Z,36.70
2022-09-28T05:08:13.264Z,36.80
2022-09-28T05:10:15.360Z,36.70
2022-09-28T05:12:19.448Z,36.70
2022-09-28T05:14:22.511Z,36.80
2022-09-28T05:16:26.288Z,36.90
2022-09-28T05:18:47.292Z,37.00
2022-09-28T05:20:49.201Z,37.00
2022-09-28T05:22:53.158Z,36.80
2022-09-28T05:24:54.946Z,36.90
2022-09-28T05:26:57.038Z,36.70
2022-09-28T05:28:58.734Z,36.80
2022-09-28T05:31:18.930Z,36.80
2022-09-28T05:33:53.312Z,36.90
2022-09-28T05:36:01.272Z,36.80
2022-09-28T05:38:05.440Z,36.70
2022-09-28T05:40:08.506Z,36.60
2022-09-28T05:42:10.199Z,36.60
2022-09-28T05:44:14.491Z,37.20
2022-09-28T05:46:17.417Z,36.60
2022-09-28T05:48:19.333Z,36.40
2022-09-28T05:50:21.442Z,36.30
2022-09-28T05:52:23.578Z,36.20
2022-09-28T05:54:28.158Z,36.20
2022-09-28T05:56:30.916Z,36.10
2022-09-28T05:58:34.599Z,36.00
2022-09-28T06:00:37.868Z,36.20
2022-09-28T06:02:40.148Z,36.20
2022-09-28T06:04:44.332Z,36.30
2022-09-28T06:06:46.003Z,36.40
2022-09-28T06:08:48.439Z,36.40
2022-09-28T06:11:04.724Z,36.60
2022-09-28T06:13:07.067Z,36.70
2022-09-28T06:15:09.803Z,36.70
2022-09-28T06:17:11.521Z,36.70
2022-09-28T06:19:13.275Z,36.60
2022-09-28T06:21:44.269Z,36.60
2022-09-28T06:23:49.143Z,36.60
2022-09-28T06:25:52.689Z,36.60
2022-09-28T06:28:04.969Z,36.60
2022-09-28T06:30:07.055Z,36.60
2022-09-28T06:32:09.191Z,37.50
2022-09-28T06:34:13.553Z,37.10
2022-09-28T06:36:18.066Z,36.90
2022-09-28T06:38:21.220Z,36.60
2022-09-28T06:40:24.774Z,36.50
2022-09-28T06:42:26.796Z,36.50
2022-09-28T06:44:59.166Z,36.60
2022-09-28T06:47:19.040Z,36.50
2022-09-28T06:49:39.606Z,36.60
2022-09-28T06:52:16.638Z,36.70
2022-09-28T06:54:40.487Z,36.60
2022-09-28T06:57:17.681Z,36.60
2022-09-28T06:59:20.235Z,36.40
2022-09-28T07:01:24.589Z,36.40
2022-09-28T07:03:41.818Z,36.40
2022-09-28T07:06:12.052Z,36.30
2022-09-28T07:09:07.914Z,36.20
2022-09-28T07:11:39.965Z,36.10
2022-09-28T07:14:07.566Z,36.30
2022-09-28T07:16:09.481Z,36.80
2022-09-28T07:18:12.441Z,36.20
2022-09-28T07:20:19.355Z,36.30
2022-09-28T07:22:39.691Z,36.30
2022-09-28T07:24:44.558Z,36.20
2022-09-28T07:27:18.291Z,36.60
2022-09-28T07:29:38.715Z,36.80
2022-09-28T07:31:57.642Z,36.40
2022-09-28T07:34:17.397Z,36.10
2022-09-28T07:36:42.348Z,35.50
2022-09-28T07:38:44.349Z,35.30
2022-09-28T07:41:04.601Z,35.50
2022-09-28T07:43:07.909Z,36.30
2022-09-28T07:45:15.245Z,35.30
2022-09-28T07:47:18.792Z,35.00
2022-09-28T07:49:39.193Z,35.10
2022-09-28T07:52:02.122Z,35.10
2022-09-28T07:54:03.986Z,35.60
2022-09-28T07:56:26.947Z,36.00
2022-09-28T07:58:53.621Z,35.70
2022-09-28T08:01:17.602Z,35.30
2022-09-28T08:03:22.657Z,34.80
2022-09-28T08:05:24.540Z,34.00
2022-09-28T08:07:26.464Z,33.70
2022-09-28T08:09:37.398Z,33.90
2022-09-28T08:12:11.512Z,33.50
2022-09-28T08:14:33.540Z,33.40
2022-09-28T08:16:47.578Z,32.90
2022-09-28T08:19:02.121Z,32.80
2022-09-28T08:21:24.164Z,32.70
2022-09-28T08:23:27.270Z,32.50
2022-09-28T08:25:29.246Z,32.50
2022-09-28T08:27:31.177Z,32.90
2022-09-28T08:29:33.081Z,33.20
2022-09-28T08:31:58.310Z,33.70
2022-09-28T08:34:08.542Z,33.80
2022-09-28T08:36:28.866Z,33.30
2022-09-28T08:38:36.492Z,32.90
2022-09-28T08:41:59.948Z,33.10
2022-09-28T08:44:26.167Z,32.70
2022-09-28T08:46:49.384Z,32.00
2022-09-28T08:49:25.561Z,30.60
2022-09-28T08:51:59.251Z,30.10
2022-09-28T08:54:45.097Z,29.90
2022-09-28T08:57:04.582Z,30.00
2022-09-28T08:59:13.613Z,29.60
2022-09-28T09:01:19.564Z,29.70
2022-09-28T09:03:27.690Z,29.80
2022-09-28T09:06:06.111Z,29.80
2022-09-28T09:08:52.278Z,30.00
2022-09-28T09:11:08.816Z,29.70
2022-09-28T09:13:52.862Z,29.80
2022-09-28T09:16:14.517Z,29.30
2022-09-28T09:18:55.722Z,29.20
2022-09-28T09:21:33.135Z,29.50
2022-09-28T09:23:41.006Z,29.10
2022-09-28T09:25:56.681Z,28.90
2022-09-28T09:28:13.267Z,28.90
2022-09-28T09:30:21.938Z,28.70
2022-09-28T09:32:36.743Z,28.50
2022-09-28T09:34:55.191Z,28.30
2022-09-28T09:37:23.118Z,28.80
2022-09-28T09:40:03.473Z,27.90
2022-09-28T09:42:42.018Z,27.60
2022-09-28T09:45:02.136Z,27.70
2022-09-28T09:47:59.540Z,28.00
2022-09-28T09:50:38.421Z,27.10
2022-09-28T09:52:59.143Z,26.30
2022-09-28T09:55:16.158Z,25.80
2022-09-28T09:57:51.235Z,26.00
2022-09-28T10:00:17.405Z,25.00
2022-09-28T10:02:38.058Z,25.50
2022-09-28T10:05:14.117Z,25.50
2022-09-28T10:07:28.629Z,25.20
2022-09-28T10:09:43.646Z,25.00
2022-09-28T10:11:57.676Z,25.30
2022-09-28T10:14:02.758Z,25.20
2022-09-28T10:16:14.341Z,24.90
2022-09-28T10:18:27.119Z,24.60
2022-09-28T10:20:47.312Z,24.50
2022-09-28T10:23:17.499Z,23.80
2022-09-28T10:25:19.966Z,23.50
2022-09-28T10:27:35.806Z,22.70
2022-09-28T10:29:55.102Z,22.80
2022-09-28T10:31:57.010Z,23.10
2022-09-28T10:34:14.577Z,22.50
2022-09-28T10:36:16.872Z,22.80
2022-09-28T10:38:19.502Z,22.80
2022-09-28T10:41:03.482Z,22.90
2022-09-28T10:43:25.276Z,22.40
2022-09-28T10:45:38.167Z,22.90
2022-09-28T10:47:44.289Z,22.90
2022-09-28T10:49:51.568Z,22.90
2022-09-28T10:51:56.583Z,23.00
2022-09-28T10:54:13.142Z,22.50
2022-09-28T10:56:23.071Z,22.50
2022-09-28T10:58:40.511Z,22.30
2022-09-28T11:00:45.621Z,21.80
2022-09-28T11:02:57.451Z,21.80
2022-09-28T11:05:01.624Z,21.60
2022-09-28T11:07:24.146Z,21.20
2022-09-28T11:09:33.579Z,21.90
2022-09-28T11:11:41.910Z,21.60
2022-09-28T11:13:52.311Z,21.10
2022-09-28T11:16:02.913Z,20.60
2022-09-28T11:18:31.302Z,20.50
2022-09-28T11:20:37.005Z,20.30
2022-09-28T11:22:42.272Z,20.60
2022-09-28T11:24:45.166Z,20.40
2022-09-28T11:26:53.241Z,20.60
2022-09-28T11:28:59.137Z,20.10
2022-09-28T11:31:13.119Z,20.30
2022-09-28T11:33:33.652Z,20.30
2022-09-28T11:36:09.339Z,20.40
2022-09-28T11:38:33.983Z,20.60
2022-09-28T11:41:50.188Z,20.40
2022-09-28T11:43:58.551Z,20.60
2022-09-28T11:46:16.709Z,21.00
2022-09-28T11:48:24.024Z,20.90
2022-09-28T11:50:47.548Z,20.70
2022-09-28T11:53:09.643Z,20.90
2022-09-28T11:55:38.197Z,21.00
2022-09-28T11:57:46.378Z,20.70
2022-09-28T12:00:27.288Z,20.30
2022-09-28T12:02:42.484Z,20.70
2022-09-28T12:05:03.373Z,20.50
2022-09-28T12:07:16.398Z,20.80
2022-09-28T12:09:32.166Z,20.60
2022-09-28T12:11:50.269Z,20.50
2022-09-28T12:13:59.277Z,20.80
2022-09-28T12:16:38.770Z,21.00
2022-09-28T12:18:27.426Z,21.20
2022-09-28T12:20:52.223Z,21.30
2022-09-28T12:22:59.789Z,20.80
2022-09-28T12:25:03.735Z,20.80
2022-09-28T12:27:21.498Z,20.90
2022-09-28T12:29:29.521Z,20.90
2022-09-28T12:31:54.477Z,21.10
2022-09-28T12:33:56.149Z,20.50
2022-09-28T12:36:30.185Z,20.60
2022-09-28T12:39:08.489Z,20.40
2022-09-28T12:41:42.346Z,19.60
2022-09-28T12:44:04.538Z,19.10
2022-09-28T12:46:36.589Z,19.70
2022-09-28T12:51:48.397Z,20.10
2022-09-28T12:54:16.020Z,19.30
2022-09-28T12:57:02.215Z,19.10
2022-09-28T12:59:23.686Z,19.10
2022-09-28T13:01:28.255Z,19.00
2022-09-28T13:04:17.001Z,17.70
2022-09-28T13:06:51.426Z,17.90
2022-09-28T13:09:16.251Z,18.10
2022-09-28T13:11:47.197Z,18.30
2022-09-28T13:14:29.689Z,17.80
2022-09-28T13:16:43.638Z,18.30
2022-09-28T13:19:01.174Z,18.30
2022-09-28T13:21:19.812Z,18.20
2022-09-28T13:23:37.524Z,17.90
2022-09-28T13:25:45.888Z,18.10
2022-09-28T13:28:03.643Z,18.20
2022-09-28T13:30:08.333Z,18.40
2022-09-28T13:32:15.454Z,18.50
2022-09-28T13:34:22.390Z,19.00
2022-09-28T13:36:32.549Z,18.10
2022-09-28T13:38:47.425Z,17.50
2022-09-28T13:41:04.619Z,18.30
2022-09-28T13:43:19.733Z,18.40
2022-09-28T13:45:21.452Z,18.50
2022-09-28T13:47:51.692Z,18.00
2022-09-28T13:50:14.690Z,18.00
2022-09-28T13:52:35.930Z,18.50
2022-09-28T13:55:23.549Z,18.30
2022-09-28T13:57:43.781Z,17.20
2022-09-28T14:00:11.684Z,17.20
2022-09-28T14:02:40.907Z,18.00
2022-09-28T14:04:57.016Z,17.80
2022-09-28T14:10:08.550Z,16.90
2022-09-28T14:12:34.896Z,16.30
2022-09-28T14:14:53.407Z,15.80
2022-09-28T14:17:30.264Z,16.10
2022-09-28T14:19:33.999Z,16.70
2022-09-28T14:21:57.946Z,16.70
2022-09-28T14:24:12.855Z,17.10
2022-09-28T14:26:41.674Z,17.70
2022-09-28T14:29:09.999Z,17.10
2022-09-28T14:31:26.094Z,17.60
2022-09-28T14:33:31.808Z,17.10
2022-09-28T14:35:45.597Z,16.90
2022-09-28T14:38:08.480Z,16.70
2022-09-28T14:40:56.236Z,16.70
2022-09-28T14:43:35.860Z,17.20
2022-09-28T14:45:38.873Z,17.40
2022-09-28T14:48:06.004Z,17.40
2022-09-28T14:50:27.389Z,17.40
2022-09-28T14:52:51.653Z,17.50
2022-09-28T14:54:57.100Z,17.20
2022-09-28T14:57:16.046Z,17.70
2022-09-28T14:59:35.847Z,17.80
2022-09-28T15:01:38.775Z,17.70
2022-09-28T15:03:42.315Z,17.60
2022-09-28T15:05:49.282Z,17.60
2022-09-28T15:07:52.915Z,17.70
2022-09-28T15:09:58.952Z,17.50
2022-09-28T15:12:01.445Z,17.00
2022-09-28T15:14:11.235Z,16.70
2022-09-28T15:16:15.652Z,17.00
2022-09-28T15:18:29.733Z,16.60
2022-09-28T15:20:38.915Z,16.80
2022-09-28T15:22:49.039Z,17.00
2022-09-28T15:25:01.397Z,17.30
2022-09-28T15:27:15.421Z,17.40
2022-09-28T15:29:19.639Z,17.30
2022-09-28T15:31:26.096Z,18.10
2022-09-28T15:33:51.476Z,18.00
2022-09-28T15:36:01.993Z,18.00
2022-09-28T15:38:04.076Z,18.30
2022-09-28T15:40:12.837Z,18.30
2022-09-28T15:42:20.348Z,18.60
2022-09-28T15:44:35.141Z,18.90
2022-09-28T15:46:47.820Z,19.10
2022-09-28T15:48:59.482Z,19.30
2022-09-28T15:51:14.967Z,19.40
2022-09-28T15:53:18.574Z,19.60
2022-09-28T15:55:34.284Z,19.80
2022-09-28T15:57:41.465Z,19.70
2022-09-28T15:59:44.358Z,19.90
2022-09-28T16:01:47.417Z,20.00
2022-09-28T16:03:51.443Z,20.10
2022-09-28T16:06:07.093Z,19.90
2022-09-28T16:08:22.012Z,19.90
2022-09-28T16:10:30.399Z,19.90
2022-09-28T16:12:58.649Z,19.80
2022-09-28T16:15:12.090Z,20.00
2022-09-28T16:17:37.770Z,20.00
2022-09-28T16:19:41.601Z,20.10
2022-09-28T16:21:49.262Z,20.20
2022-09-28T16:23:57.445Z,20.30
2022-09-28T16:26:05.703Z,20.30
2022-09-28T16:28:23.850Z,20.30
2022-09-28T16:30:35.028Z,20.30
2022-09-28T16:33:06.256Z,20.00
2022-09-28T16:35:23.430Z,20.00
2022-09-28T16:37:32.197Z,19.80
2022-09-28T16:39:34.114Z,20.00
2022-09-28T16:41:40.120Z,20.00
2022-09-28T16:43:41.918Z,20.10
2022-09-28T16:45:43.560Z,20.20
2022-09-28T16:47:47.232Z,20.30
2022-09-28T16:49:50.359Z,20.50
2022-09-28T16:51:53.627Z,20.50
2022-09-28T16:54:25.030Z,20.70
2022-09-28T16:56:27.821Z,20.60
2022-09-28T16:58:34.333Z,20.50
2022-09-28T17:00:38.719Z,20.40
2022-09-28T17:02:46.668Z,20.40
2022-09-28T17:04:48.795Z,20.50
2022-09-28T17:06:53.573Z,20.40
2022-09-28T17:08:56.563Z,20.50
2022-09-28T17:11:24.139Z,20.50
2022-09-28T17:13:33.858Z,20.60
2022-09-28T17:15:37.979Z,20.60
2022-09-28T17:17:40.934Z,20.80
2022-09-28T17:19:42.631Z,20.90
2022-09-28T17:21:44.291Z,20.90
2022-09-28T17:23:47.574Z,21.10
2022-09-28T17:25:49.452Z,21.20
2022-09-28T17:27:53.863Z,21.40
2022-09-28T17:29:55.833Z,21.70
2022-09-28T17:31:59.949Z,21.80
2022-09-28T17:34:01.648Z,21.90
2022-09-28T17:36:05.109Z,22.00
2022-09-28T17:38:09.267Z,22.10
2022-09-28T17:40:21.216Z,22.00
2022-09-28T17:42:23.021Z,22.40
2022-09-28T17:44:24.760Z,22.40
2022-09-28T17:46:32.800Z,22.40
2022-09-28T17:48:35.632Z,22.40
2022-09-28T17:50:37.364Z,22.30
2022-09-28T17:52:39.029Z,22.30
2022-09-28T17:54:40.658Z,22.30
2022-09-28T17:56:43.904Z,22.30
2022-09-28T17:58:48.012Z,22.30
2022-09-28T18:00:51.597Z,22.40
2022-09-28T18:02:58.065Z,23.20
2022-09-28T18:04:59.895Z,22.80
2022-09-28T18:07:01.671Z,22.70
2022-09-28T18:09:04.472Z,22.80
2022-09-28T18:11:08.553Z,23.00
2022-09-28T18:13:18.834Z,22.80
2022-09-28T18:15:27.634Z,22.80
2022-09-28T18:17:29.350Z,23.00
2022-09-28T18:19:34.389Z,23.00
2022-09-28T18:21:39.906Z,23.00
2022-09-28T18:23:42.680Z,23.10
2022-09-28T18:25:45.769Z,23.10
2022-09-28T18:27:50.255Z,23.30
2022-09-28T18:29:51.949Z,23.40
2022-09-28T18:31:53.587Z,23.30
2022-09-28T18:34:05.471Z,23.50
2022-09-28T18:36:08.144Z,23.80
2022-09-28T18:38:09.843Z,23.70
2022-09-28T18:40:13.353Z,23.80
2022-09-28T18:42:15.130Z,23.70
2022-09-28T18:44:19.248Z,23.70
2022-09-28T18:46:21.066Z,23.60
2022-09-28T18:48:27.347Z,23.80
2022-09-28T18:50:29.201Z,23.90
2022-09-28T18:52:30.886Z,23.90
2022-09-28T18:54:34.247Z,24.00
2022-09-28T18:56:37.968Z,24.10
2022-09-28T18:58:41.628Z,24.10
2022-09-28T19:00:43.381Z,24.20
2022-09-28T19:02:45.130Z,24.20
2022-09-28T19:04:48.941Z,24.30
2022-09-28T19:06:52.272Z,24.90
2022-09-28T19:08:55.576Z,24.50
2022-09-28T19:11:07.653Z,24.60
2022-09-28T19:13:09.364Z,25.00
2022-09-28T19:15:14.462Z,24.50
2022-09-28T19:17:18.014Z,24.60
2022-09-28T19:19:20.381Z,24.70
2022-09-28T19:21:22.864Z,24.70
2022-09-28T19:23:26.881Z,24.70
2022-09-28T19:25:28.970Z,24.70
2022-09-28T19:27:30.623Z,24.70
2022-09-28T19:29:32.581Z,24.70
2022-09-28T19:31:34.431Z,24.80
2022-09-28T19:33:37.045Z,24.80
2022-09-28T19:35:39.841Z,24.80
2022-09-28T19:37:42.094Z,24.80
2022-09-28T19:39:46.443Z,24.80
2022-09-28T19:41:51.465Z,24.80
2022-09-28T19:43:53.170Z,24.80
2022-09-28T19:45:55.870Z,25.40
2022-09-28T19:47:59.583Z,25.00
2022-09-28T19:50:01.259Z,25.10
2022-09-28T19:52:13.206Z,25.20
2022-09-28T19:54:18.597Z,25.20
2022-09-28T19:56:21.222Z,25.10
2022-09-28T19:58:26.933Z,25.20
2022-09-28T20:00:28.658Z,25.20
2022-09-28T20:02:30.421Z,25.40
2022-09-28T20:04:32.129Z,25.40
2022-09-28T20:06:34.250Z,25.30
2022-09-28T20:08:40.276Z,25.50
2022-09-28T20:10:52.286Z,25.50
2022-09-28T20:12:53.954Z,25.80
2022-09-28T20:14:55.599Z,25.60
2022-09-28T20:16:57.239Z,25.70
2022-09-28T20:19:03.004Z,25.80
2022-09-28T20:21:09.521Z,25.90
2022-09-28T20:23:13.292Z,25.80
2022-09-28T20:25:15.269Z,25.70
2022-09-28T20:27:22.095Z,25.60
2022-09-28T20:29:31.351Z,25.50
2022-09-28T20:31:37.100Z,25.60
2022-09-28T20:33:39.273Z,25.60
2022-09-28T20:35:41.088Z,25.40
2022-09-28T20:37:45.396Z,25.50
2022-09-28T20:39:47.081Z,25.40
2022-09-28T20:41:49.181Z,25.50
2022-09-28T20:43:53.552Z,25.30
2022-09-28T20:45:56.202Z,25.20
2022-09-28T20:48:04.512Z,25.10
2022-09-28T20:50:07.220Z,25.00
2022-09-28T20:52:10.891Z,24.90
2022-09-28T20:54:14.796Z,24.80
2022-09-28T20:56:23.526Z,24.90
2022-09-28T20:58:25.771Z,25.00
2022-09-28T21:00:27.452Z,24.80
2022-09-28T21:02:31.756Z,24.80
2022-09-28T21:04:33.592Z,25.10
2022-09-28T21:06:37.703Z,25.10
2022-09-28T21:08:39.978Z,25.20
2022-09-28T21:10:44.909Z,25.30
2022-09-28T21:12:51.334Z,25.50
2022-09-28T21:14:55.740Z,25.50
2022-09-28T21:17:00.355Z,25.60
2022-09-28T21:19:02.813Z,25.80
2022-09-28T21:21:14.042Z,25.90
2022-09-28T21:23:24.546Z,26.10
2022-09-28T21:25:28.870Z,26.30
2022-09-28T21:27:30.974Z,26.20
2022-09-28T21:29:32.765Z,26.40
2022-09-28T21:31:48.087Z,26.40
2022-09-28T21:33:52.147Z,26.80
2022-09-28T21:35:54.409Z,26.50
2022-09-28T21:37:56.299Z,26.60
2022-09-28T21:39:59.437Z,26.60
2022-09-28T21:42:01.247Z,26.80
2022-09-28T21:44:03.170Z,26.90
2022-09-28T21:46:04.999Z,27.00
2022-09-28T21:48:06.690Z,27.00
2022-09-28T21:50:08.688Z,27.10
2022-09-28T21:52:10.386Z,27.10
2022-09-28T21:54:12.449Z,27.30
2022-09-28T21:56:14.186Z,27.30
2022-09-28T21:58:22.519Z,27.30
2022-09-28T22:00:24.315Z,27.50
2022-09-28T22:02:25.951Z,27.30
2022-09-28T22:04:27.636Z,27.30
2022-09-28T22:06:29.335Z,27.30
2022-09-28T22:08:34.964Z,27.30
2022-09-28T22:10:36.642Z,27.50
2022-09-28T22:12:42.016Z,27.40
2022-09-28T22:14:43.693Z,27.40
2022-09-28T22:16:45.347Z,27.90
2022-09-28T22:18:47.692Z,27.30
2022-09-28T22:21:08.777Z,27.40
2022-09-28T22:23:13.929Z,27.50
2022-09-28T22:25:18.342Z,27.30
2022-09-28T22:27:23.032Z,27.20
2022-09-28T22:29:26.199Z,27.30
2022-09-28T22:31:33.556Z,27.20
2022-09-28T22:33:39.751Z,27.40
2022-09-28T22:35:41.483Z,27.30
2022-09-28T22:37:43.178Z,27.20
2022-09-28T22:39:44.868Z,27.10
2022-09-28T22:41:48.994Z,27.10
2022-09-28T22:43:54.108Z,27.10
2022-09-28T22:46:16.604Z,27.30
2022-09-28T22:48:20.843Z,27.40
2022-09-28T22:50:22.524Z,27.30
2022-09-28T22:52:24.223Z,27.10
2022-09-28T22:54:26.033Z,27.10
2022-09-28T22:56:28.169Z,27.20
2022-09-28T22:58:29.785Z,27.30
2022-09-28T23:00:31.515Z,27.30
2022-09-28T23:02:33.165Z,27.30
2022-09-28T23:04:35.272Z,27.30
2022-09-28T23:06:36.984Z,27.30
2022-09-28T23:08:39.326Z,27.30
2022-09-28T23:10:44.107Z,27.30
2022-09-28T23:12:45.807Z,27.30
2022-09-28T23:14:49.816Z,27.30
2022-09-28T23:16:54.104Z,27.30
2022-09-28T23:18:58.357Z,27.30
2022-09-28T23:21:05.153Z,27.40
2022-09-28T23:23:06.849Z,27.30
2022-09-28T23:25:08.859Z,27.30
2022-09-28T23:27:11.936Z,27.40
2022-09-28T23:29:13.692Z,27.50
2022-09-28T23:31:27.837Z,28.00
2022-09-28T23:33:29.994Z,27.60
2022-09-28T23:35:33.693Z,27.50
2022-09-28T23:37:35.507Z,27.60
2022-09-28T23:39:37.234Z,27.70
2022-09-28T23:41:39.828Z,27.80
2022-09-28T23:43:41.931Z,28.00
2022-09-28T23:45:44.265Z,28.00
2022-09-28T23:47:46.055Z,28.60
2022-09-28T23:49:50.458Z,28.30
2022-09-28T23:51:52.081Z,28.40
2022-09-28T23:53:53.834Z,28.40
2022-09-28T23:55:55.689Z,28.40
2022-09-28T23:58:00.431Z,28.50
